Главная страница
METAR-TAF:

METAR-TAF

Аэропорты :

Нджамена, Чад

широта: 12-08N, долгота: 015-02E, высота над уровнем моря: 295 м

Текущие метеонаблюдения

Эта сводка был подготовлена 24 минут назад, в 02:00 UTC
Ветер 6 Узел от северный
Температура 17°C
Влажность 20%
Давление 1012 hPa
Видимость: 8000 м

METAR: FTTJ 230200Z 36006KT 8000 NSC 17/M06 Q1012 NOSIG

Время: 03:24 (02:24 UTC)

Прогноз

Эта сводка был подготовлена 3 часа и 24 минут назад, в 23:00 UTC
Прогноз действительный с 23-го 00 UTC до 24-го 06 UTC
Ветер 6 Узел от северо-северо-восточный
Видимость: 4000 м
мгла
временами
С 23-го 07 UTC до 23-го 15 UTC
Ветер 12 Узел от северо-восточный
Видимость: 6000 м

TAF: FTTJ 222300Z 2300/2406 02006KT 4000 HZ NSC TEMPO 2307/2315 04012KT 6000 NSW

Метеонаблюдения и прогнозы для более 4000 аэропортов (сводки METAR и TAF).

Имеющиеся станции представлены на карте желтыми и красными точками.

Чтобы увидеть название станции, наведите на нее мышь.

Затем щелкните, чтобы увидеть метеонаблюдения и метеопрогнозы.

Управление картой: чтобы увеличить масштаб, щелкните зеленые кнопки с черным крестиком; чтобы уменьшить масштаб, щелкните зеленую кнопку с тире; для просмотра соседних карт щелкайте зеленые стрелки.


METAR-TAF: